Time;durP1;ratioP1;P1;durP2;ratioP2;P2;SDS_P1;SDS_P2;PMS_P1;PMS_P2;Temp;Humidity;BMP_temperature;BMP_pressure;BME280_temperature;BME280_humidity;BME280_pressure;Samples;Min_cycle;Max_cycle;Signal;HPM_P1;HPM_P2
2021/05/11 00:02:25;;;;;;;1.67;1.58;;;18.50;99.90;;;;;;5013682;28;20278;-75
2021/05/11 00:04:52;;;;;;;2.25;1.50;;;18.50;99.90;;;;;;5010934;28;20232;-73
2021/05/11 00:07:19;;;;;;;3.15;1.70;;;18.50;99.90;;;;;;5013102;28;20254;-74
2021/05/11 00:09:45;;;;;;;2.35;2.00;;;18.50;99.90;;;;;;5008042;28;21770;-75
2021/05/11 00:12:12;;;;;;;4.93;2.72;;;18.50;99.90;;;;;;5009756;28;20219;-75
2021/05/11 00:14:39;;;;;;;4.95;2.03;;;18.50;99.90;;;;;;5009093;28;20215;-75
2021/05/11 00:17:06;;;;;;;1.90;1.80;;;18.60;99.90;;;;;;5012645;28;20655;-75
2021/05/11 00:19:35;;;;;;;2.72;1.98;;;18.60;99.90;;;;;;5012586;28;20362;-75
2021/05/11 00:22:01;;;;;;;4.90;2.40;;;18.60;99.90;;;;;;5010262;28;20673;-75
2021/05/11 00:24:28;;;;;;;3.20;1.98;;;18.70;99.90;;;;;;5014841;28;20268;-75
2021/05/11 00:26:54;;;;;;;2.63;1.92;;;18.70;99.90;;;;;;5012315;28;20289;-75
2021/05/11 00:29:21;;;;;;;3.50;2.05;;;18.70;99.90;;;;;;5021504;28;20746;-75
2021/05/11 00:31:48;;;;;;;1.83;1.60;;;18.70;99.90;;;;;;5019405;28;20197;-75
2021/05/11 00:34:15;;;;;;;1.80;1.60;;;18.60;99.90;;;;;;5016205;28;20242;-76
2021/05/11 00:36:42;;;;;;;2.80;1.83;;;18.60;99.90;;;;;;5015544;28;20204;-76
2021/05/11 00:39:08;;;;;;;1.77;1.63;;;18.60;99.90;;;;;;5008404;28;20200;-76
2021/05/11 00:41:35;;;;;;;1.95;1.50;;;18.50;99.90;;;;;;5011838;28;20698;-75
2021/05/11 00:44:01;;;;;;;3.00;1.50;;;18.50;99.90;;;;;;5008471;28;20220;-74
2021/05/11 00:46:30;;;;;;;1.50;1.40;;;18.50;99.90;;;;;;5008645;28;20290;-75
2021/05/11 00:48:57;;;;;;;1.67;1.48;;;18.50;99.90;;;;;;5011436;28;20759;-74
2021/05/11 00:51:24;;;;;;;1.10;1.10;;;18.40;99.90;;;;;;5008497;28;20299;-75
2021/05/11 00:53:51;;;;;;;2.25;1.40;;;18.40;99.90;;;;;;5010541;28;20224;-74
2021/05/11 00:56:20;;;;;;;1.92;1.30;;;18.40;99.90;;;;;;5007618;28;20228;-75
2021/05/11 00:58:47;;;;;;;1.40;1.30;;;18.30;99.90;;;;;;5022261;28;20716;-76
2021/05/11 01:01:13;;;;;;;2.00;1.52;;;18.30;99.90;;;;;;5020012;28;20286;-74
2021/05/11 01:03:41;;;;;;;1.98;1.30;;;18.30;99.90;;;;;;5007762;28;20224;-76
2021/05/11 01:06:08;;;;;;;1.63;1.52;;;18.30;99.90;;;;;;5007161;28;20227;-75
2021/05/11 01:08:35;;;;;;;2.60;1.80;;;18.20;99.90;;;;;;5013389;28;20204;-75
2021/05/11 01:11:01;;;;;;;1.92;1.83;;;18.20;99.90;;;;;;5011472;28;20274;-74
2021/05/11 01:13:28;;;;;;;1.60;1.50;;;18.30;99.90;;;;;;5014042;28;20220;-75
2021/05/11 01:15:54;;;;;;;1.88;1.60;;;18.30;99.90;;;;;;5006584;28;20223;-76
2021/05/11 01:21:22;;;;;;;1.80;1.48;;;18.30;99.90;;;;;;5017755;28;20307;-74
2021/05/11 01:24:06;;;;;;;2.88;1.70;;;18.30;99.90;;;;;;5006684;28;20219;-74
2021/05/11 01:26:39;;;;;;;3.05;1.60;;;18.40;99.90;;;;;;5004372;28;20239;-74
2021/05/11 01:29:16;;;;;;;1.77;1.67;;;18.30;99.90;;;;;;5023876;28;20196;-75
2021/05/11 01:48:40;;;;;;;1.70;1.60;;;18.30;99.90;;;;;;5005172;28;20651;-74
2021/05/11 01:51:27;;;;;;;1.42;1.33;;;18.30;99.90;;;;;;5008312;28;20239;-73
2021/05/11 02:24:36;;;;;;;3.13;1.52;;;18.00;99.90;;;;;;5003742;28;20275;-74
2021/05/11 02:27:03;;;;;;;1.50;1.40;;;18.10;99.90;;;;;;5009977;28;20659;-74
2021/05/11 02:29:30;;;;;;;1.92;1.48;;;18.10;99.90;;;;;;5018191;28;20215;-75
2021/05/11 02:31:57;;;;;;;3.13;1.65;;;18.10;99.90;;;;;;5017155;28;20757;-74
2021/05/11 02:34:23;;;;;;;3.05;1.73;;;18.10;99.90;;;;;;5028472;23;20516;-70
2021/05/11 02:36:50;;;;;;;4.32;2.22;;;18.10;99.90;;;;;;5008559;28;20262;-70
2021/05/11 02:39:16;;;;;;;2.63;1.70;;;18.00;99.90;;;;;;5018294;28;20253;-73
2021/05/11 02:41:44;;;;;;;2.83;1.85;;;18.00;99.90;;;;;;5015661;28;20701;-71
2021/05/11 02:44:14;;;;;;;2.10;1.90;;;17.90;99.90;;;;;;5020174;28;20614;-71
2021/05/11 02:46:41;;;;;;;3.08;2.10;;;17.90;99.90;;;;;;5015322;28;20460;-71
2021/05/11 02:49:08;;;;;;;3.85;1.80;;;17.90;99.90;;;;;;5016253;28;20196;-71
2021/05/11 02:51:35;;;;;;;1.73;1.63;;;17.80;99.90;;;;;;5020047;28;20222;-72
2021/05/11 02:54:02;;;;;;;2.65;1.73;;;17.80;99.90;;;;;;5022900;28;20212;-71
2021/05/11 02:56:29;;;;;;;2.15;1.45;;;17.80;99.90;;;;;;5018808;28;20220;-71
2021/05/11 02:58:55;;;;;;;1.92;1.55;;;17.80;99.90;;;;;;5025704;28;20192;-71
2021/05/11 03:01:22;;;;;;;2.17;1.48;;;17.80;99.90;;;;;;5019633;28;20228;-71
2021/05/11 03:03:49;;;;;;;1.50;1.40;;;17.80;99.90;;;;;;5024740;28;20211;-71
2021/05/11 03:06:16;;;;;;;2.08;1.30;;;17.80;99.90;;;;;;5020768;28;20235;-71
2021/05/11 03:08:43;;;;;;;1.50;1.35;;;17.80;99.90;;;;;;5026852;28;20196;-71
2021/05/11 03:11:10;;;;;;;1.40;1.30;;;17.70;99.90;;;;;;5030010;28;20220;-71
2021/05/11 03:13:37;;;;;;;1.27;1.20;;;17.80;99.90;;;;;;5025195;28;20258;-71
2021/05/11 03:16:04;;;;;;;1.40;1.30;;;17.70;99.90;;;;;;5015751;28;20212;-72
2021/05/11 03:18:31;;;;;;;1.42;1.20;;;17.70;99.90;;;;;;5024052;28;20207;-71
2021/05/11 03:20:58;;;;;;;4.30;1.88;;;17.60;99.90;;;;;;5016948;28;20224;-71
2021/05/11 03:23:25;;;;;;;1.77;1.35;;;17.70;99.90;;;;;;5022044;28;20219;-71
2021/05/11 03:25:51;;;;;;;1.60;1.50;;;17.70;99.90;;;;;;5016057;28;20222;-71
2021/05/11 03:28:18;;;;;;;2.90;1.85;;;17.70;99.90;;;;;;5018704;28;20223;-70
2021/05/11 03:30:45;;;;;;;1.45;1.35;;;17.80;99.90;;;;;;5022705;28;20224;-71
2021/05/11 03:33:11;;;;;;;1.35;1.25;;;17.80;99.90;;;;;;5021257;28;20927;-71
2021/05/11 03:35:38;;;;;;;1.20;1.20;;;17.70;99.90;;;;;;5035786;28;20253;-71
2021/05/11 03:38:07;;;;;;;1.60;1.50;;;17.80;99.90;;;;;;5015845;28;20220;-71
2021/05/11 03:40:34;;;;;;;1.20;1.10;;;17.70;99.90;;;;;;5019370;28;20223;-71
2021/05/11 03:43:04;;;;;;;1.75;1.65;;;17.80;99.90;;;;;;5021443;28;20215;-71
2021/05/11 03:45:35;;;;;;;1.40;1.30;;;17.80;99.90;;;;;;5021801;28;20212;-71
2021/05/11 03:48:02;;;;;;;1.42;1.33;;;17.80;99.90;;;;;;5021930;28;21913;-71
2021/05/11 03:50:28;;;;;;;1.60;1.50;;;17.80;99.90;;;;;;5022987;28;20227;-71
2021/05/11 03:52:55;;;;;;;1.27;1.17;;;17.80;99.90;;;;;;5018560;28;20228;-71
2021/05/11 03:55:22;;;;;;;2.60;1.50;;;17.80;99.90;;;;;;5021537;28;20219;-71
2021/05/11 03:57:49;;;;;;;1.77;1.67;;;17.80;99.90;;;;;;5025787;28;20200;-71
2021/05/11 04:00:17;;;;;;;1.88;1.75;;;17.70;99.90;;;;;;5024990;28;20233;-73
2021/05/11 04:02:44;;;;;;;2.10;1.90;;;17.70;99.90;;;;;;5021287;28;20204;-72
2021/05/11 04:05:14;;;;;;;2.15;1.95;;;17.70;99.90;;;;;;5020669;28;20503;-73
2021/05/11 04:07:41;;;;;;;2.17;1.83;;;17.70;99.90;;;;;;5024276;28;20198;-72
2021/05/11 04:10:15;;;;;;;2.22;2.03;;;17.70;99.90;;;;;;5023081;28;20212;-71
2021/05/11 04:13:08;;;;;;;3.83;2.03;;;17.70;99.90;;;;;;5019792;28;20553;-71
2021/05/11 04:18:19;;;;;;;4.15;2.22;;;17.60;99.90;;;;;;5020285;28;20230;-72
2021/05/11 04:20:47;;;;;;;2.17;1.98;;;17.60;99.90;;;;;;5022512;28;20223;-72
2021/05/11 04:23:13;;;;;;;1.92;1.77;;;17.60;99.90;;;;;;5024800;28;20633;-71
2021/05/11 04:25:40;;;;;;;3.75;2.03;;;17.60;99.90;;;;;;5019796;28;20228;-71
2021/05/11 04:28:07;;;;;;;2.25;2.00;;;17.60;99.90;;;;;;5025748;28;20591;-73
2021/05/11 04:30:34;;;;;;;2.00;1.80;;;17.50;99.90;;;;;;5030942;28;20219;-73
2021/05/11 04:33:01;;;;;;;3.38;2.25;;;17.50;99.90;;;;;;5021086;28;20239;-72
2021/05/11 04:35:27;;;;;;;2.92;2.25;;;17.50;99.90;;;;;;5020548;28;20494;-72
2021/05/11 04:37:54;;;;;;;2.95;2.10;;;17.60;99.90;;;;;;5018665;28;20215;-72
2021/05/11 04:40:21;;;;;;;2.65;1.98;;;17.50;99.90;;;;;;5018050;28;20224;-71
2021/05/11 04:42:47;;;;;;;2.97;2.28;;;17.60;99.90;;;;;;5017893;28;20215;-71
2021/05/11 04:45:19;;;;;;;2.70;2.03;;;17.50;99.90;;;;;;5021359;28;20199;-72
2021/05/11 04:47:47;;;;;;;4.15;2.00;;;17.50;99.90;;;;;;5020975;28;20204;-72
2021/05/11 04:50:15;;;;;;;2.70;2.30;;;17.50;99.90;;;;;;5015657;28;20225;-72
2021/05/11 04:52:42;;;;;;;3.40;2.40;;;17.50;99.90;;;;;;5019732;28;20205;-71
2021/05/11 04:55:11;;;;;;;3.20;2.30;;;17.40;99.90;;;;;;5020586;28;20226;-72
2021/05/11 04:57:38;;;;;;;2.80;2.10;;;17.30;99.90;;;;;;5023134;28;20207;-71
2021/05/11 05:00:07;;;;;;;2.55;2.10;;;17.20;99.90;;;;;;5022902;28;20607;-72
2021/05/11 05:02:36;;;;;;;2.70;2.15;;;17.10;99.90;;;;;;5021416;28;20195;-73
2021/05/11 05:05:03;;;;;;;3.83;2.42;;;17.00;99.90;;;;;;5018116;28;20199;-75
2021/05/11 05:07:30;;;;;;;2.50;2.03;;;16.90;99.90;;;;;;5024344;28;20215;-73
2021/05/11 05:09:56;;;;;;;3.78;2.50;;;16.80;99.90;;;;;;5018351;28;20220;-73
2021/05/11 05:12:23;;;;;;;3.08;2.30;;;16.80;99.90;;;;;;5021061;28;20833;-72
2021/05/11 05:14:49;;;;;;;3.40;2.40;;;16.70;99.90;;;;;;5018027;28;20733;-72
2021/05/11 05:17:16;;;;;;;2.28;2.10;;;16.70;99.90;;;;;;5020439;28;20216;-72
2021/05/11 05:19:43;;;;;;;2.42;2.22;;;16.60;99.90;;;;;;5022440;28;20204;-71
2021/05/11 05:22:10;;;;;;;4.00;1.92;;;16.60;99.90;;;;;;5020142;28;20227;-71
2021/05/11 05:24:40;;;;;;;2.85;2.03;;;16.50;99.90;;;;;;5018758;28;20228;-72
2021/05/11 05:27:14;;;;;;;2.35;2.15;;;16.50;99.90;;;;;;5018804;28;20228;-72
2021/05/11 05:29:40;;;;;;;2.83;2.17;;;16.40;99.90;;;;;;5023445;28;20670;-72
2021/05/11 05:32:08;;;;;;;3.05;2.60;;;16.30;99.90;;;;;;5017427;28;20223;-71
2021/05/11 05:34:34;;;;;;;2.50;2.30;;;16.20;99.90;;;;;;5023443;28;20594;-72
2021/05/11 05:37:02;;;;;;;2.45;2.25;;;16.20;99.90;;;;;;5017461;28;20223;-70
2021/05/11 05:39:32;;;;;;;2.42;2.20;;;16.20;99.90;;;;;;5015204;28;20534;-72
2021/05/11 05:41:59;;;;;;;2.40;2.20;;;16.20;99.90;;;;;;5015881;28;20277;-73
2021/05/11 05:44:26;;;;;;;2.60;2.25;;;16.10;99.90;;;;;;5019922;28;20226;-71
2021/05/11 05:46:52;;;;;;;4.50;1.98;;;16.00;99.90;;;;;;5017713;28;20216;-71
2021/05/11 05:49:19;;;;;;;3.17;2.38;;;16.00;99.90;;;;;;5013792;28;20201;-70
2021/05/11 05:51:48;;;;;;;3.60;2.40;;;16.00;99.90;;;;;;5014138;28;20242;-72
2021/05/11 05:54:16;;;;;;;2.55;2.15;;;16.00;99.90;;;;;;5014206;28;20728;-72
2021/05/11 05:56:43;;;;;;;2.38;2.15;;;15.90;99.90;;;;;;5008869;28;20223;-71
2021/05/11 05:59:09;;;;;;;2.83;2.25;;;15.80;99.90;;;;;;5015699;28;20203;-73
2021/05/11 06:01:36;;;;;;;3.28;1.70;;;15.80;99.90;;;;;;5013334;28;21503;-72
2021/05/11 06:04:10;;;;;;;3.40;1.80;;;15.80;99.90;;;;;;5013667;28;20219;-71
2021/05/11 06:06:36;;;;;;;1.90;1.80;;;15.80;99.90;;;;;;5013200;28;20223;-72
2021/05/11 06:09:10;;;;;;;1.95;1.80;;;15.80;99.90;;;;;;5013187;28;20211;-72
2021/05/11 06:11:42;;;;;;;2.55;2.35;;;15.70;99.90;;;;;;5014740;28;20231;-73
2021/05/11 06:14:17;;;;;;;2.90;2.70;;;15.60;99.90;;;;;;5008991;28;20219;-73
2021/05/11 06:17:13;;;;;;;3.05;2.38;;;15.30;99.90;;;;;;5014048;28;20591;-73
2021/05/11 06:19:39;;;;;;;3.35;3.03;;;15.00;99.90;;;;;;5015755;28;20203;-71
2021/05/11 06:22:06;;;;;;;3.20;2.80;;;14.90;99.90;;;;;;5014896;28;20655;-72
2021/05/11 06:24:32;;;;;;;3.40;2.60;;;14.80;99.90;;;;;;5012554;28;20224;-72
2021/05/11 06:27:00;;;;;;;3.05;2.05;;;14.80;99.90;;;;;;5013738;28;20223;-72
2021/05/11 06:29:28;;;;;;;2.67;2.03;;;14.90;99.90;;;;;;5024672;28;20432;-72
2021/05/11 06:31:55;;;;;;;2.35;2.17;;;14.90;99.90;;;;;;5016026;28;20235;-73
2021/05/11 06:34:21;;;;;;;3.00;2.22;;;15.00;99.90;;;;;;5017259;28;20227;-73
2021/05/11 06:36:48;;;;;;;2.35;2.15;;;15.00;99.90;;;;;;5019394;28;20234;-73
2021/05/11 06:39:16;;;;;;;3.42;3.13;;;14.90;99.90;;;;;;5015594;28;20207;-72
2021/05/11 06:41:45;;;;;;;3.08;2.72;;;14.90;99.90;;;;;;5014952;28;20226;-73
2021/05/11 06:44:24;;;;;;;3.13;2.53;;;14.90;99.90;;;;;;5010069;28;20301;-73
2021/05/11 06:50:09;;;;;;;2.55;2.35;;;14.90;99.90;;;;;;5016427;28;20252;-73
2021/05/11 06:52:46;;;;;;;2.53;2.08;;;15.00;99.90;;;;;;5011947;28;20238;-72
2021/05/11 06:55:15;;;;;;;3.30;3.00;;;15.00;99.90;;;;;;5014090;28;20188;-70
2021/05/11 06:57:42;;;;;;;3.95;2.50;;;15.10;99.90;;;;;;5015502;28;20317;-71
2021/05/11 07:00:10;;;;;;;2.92;2.10;;;15.10;99.90;;;;;;5013540;28;20227;-73
2021/05/11 07:02:37;;;;;;;3.40;2.67;;;14.90;99.90;;;;;;5018807;28;20219;-73
2021/05/11 07:05:04;;;;;;;2.97;2.78;;;14.80;99.90;;;;;;5016540;28;20255;-72
2021/05/11 07:07:33;;;;;;;3.40;3.10;;;14.60;99.90;;;;;;5020164;28;20673;-71
2021/05/11 07:10:09;;;;;;;2.72;2.53;;;14.50;99.90;;;;;;5021277;28;20219;-73
2021/05/11 07:15:37;;;;;;;2.00;1.90;;;14.50;99.90;;;;;;5000205;28;20279;-76
2021/05/11 07:18:14;;;;;;;2.75;2.55;;;14.70;99.90;;;;;;4996733;28;20200;-72
2021/05/11 07:20:43;;;;;;;2.40;2.20;;;14.80;99.90;;;;;;5009241;28;20184;-73
2021/05/11 07:23:09;;;;;;;3.53;2.35;;;14.80;99.90;;;;;;5018306;28;20253;-72
2021/05/11 07:25:42;;;;;;;2.60;2.40;;;14.80;99.90;;;;;;5017333;28;20721;-71
2021/05/11 07:31:12;;;;;;;2.17;1.98;;;14.60;99.90;;;;;;5016537;28;20221;-72
2021/05/11 07:33:41;;;;;;;2.05;1.92;;;14.60;99.90;;;;;;5018336;28;20234;-74
2021/05/11 07:36:08;;;;;;;2.13;2.00;;;14.70;99.90;;;;;;5016031;28;20523;-73
2021/05/11 07:38:35;;;;;;;2.28;2.10;;;14.90;99.90;;;;;;5019726;28;20191;-72
2021/05/11 07:41:05;;;;;;;1.88;1.77;;;14.90;99.90;;;;;;5019911;28;20235;-73
2021/05/11 07:43:33;;;;;;;2.00;1.90;;;14.90;99.90;;;;;;5015489;28;20310;-71
2021/05/11 07:49:20;;;;;;;2.65;2.45;;;14.90;99.90;;;;;;5008330;28;20497;-75
2021/05/11 08:05:32;;;;;;;2.40;2.25;;;14.80;99.90;;;;;;5011199;28;20199;-72
2021/05/11 08:16:15;;;;;;;2.17;1.98;;;14.90;99.90;;;;;;5016825;28;20748;-75
2021/05/11 08:18:46;;;;;;;2.30;2.20;;;15.00;99.90;;;;;;5013181;28;20587;-73
2021/05/11 08:29:23;;;;;;;4.47;2.65;;;15.00;99.90;;;;;;5016525;28;20209;-74
2021/05/11 08:31:49;;;;;;;2.40;2.20;;;15.10;99.90;;;;;;5027223;28;20608;-74
2021/05/11 08:34:16;;;;;;;2.70;2.50;;;15.10;99.90;;;;;;5036389;23;20247;-76
2021/05/11 08:36:43;;;;;;;3.00;2.80;;;15.20;99.90;;;;;;5033899;28;20239;-77
2021/05/11 08:39:10;;;;;;;2.80;2.60;;;15.30;99.90;;;;;;5030297;28;20206;-77
2021/05/11 08:41:37;;;;;;;6.07;3.10;;;15.40;99.90;;;;;;5033687;28;20222;-77
2021/05/11 08:44:07;;;;;;;4.13;2.75;;;15.40;99.90;;;;;;5031992;28;20229;-77
2021/05/11 08:46:36;;;;;;;3.88;3.58;;;15.20;99.90;;;;;;5034515;28;20222;-77
2021/05/11 08:49:05;;;;;;;4.25;3.05;;;15.00;99.90;;;;;;5039294;28;20204;-77
2021/05/11 08:51:33;;;;;;;5.10;3.30;;;14.80;99.90;;;;;;5038824;28;20227;-76
2021/05/11 08:54:21;;;;;;;3.47;3.28;;;14.60;99.90;;;;;;5033893;28;20297;-78
2021/05/11 09:05:17;;;;;;;3.08;2.70;;;14.50;99.90;;;;;;5040303;28;20218;-76
2021/05/11 09:16:46;;;;;;;3.97;3.50;;;14.80;99.90;;;;;;5032151;28;20241;-78
2021/05/11 09:25:11;;;;;;;3.10;2.90;;;14.80;99.90;;;;;;5032465;28;20229;-76
2021/05/11 09:27:45;;;;;;;3.80;3.50;;;14.90;99.90;;;;;;5031351;28;20230;-77
2021/05/11 09:30:21;;;;;;;3.15;2.85;;;14.80;99.90;;;;;;5030559;28;20214;-77
2021/05/11 09:33:15;;;;;;;3.38;2.97;;;14.70;99.90;;;;;;5031144;28;20716;-77
2021/05/11 09:58:50;;;;;;;2.60;2.40;;;15.00;99.90;;;;;;5011466;28;20252;-76
2021/05/11 10:36:37;;;;;;;2.55;2.35;;;15.30;99.90;;;;;;5032916;28;20212;-77
2021/05/11 10:42:28;;;;;;;3.10;2.75;;;15.20;99.90;;;;;;4979752;28;20197;-77
2021/05/11 10:48:21;;;;;;;2.20;2.10;;;15.20;99.90;;;;;;4998989;28;20804;-76
2021/05/11 10:50:50;;;;;;;2.75;2.55;;;15.20;99.90;;;;;;5043266;28;20840;-76
2021/05/11 10:53:44;;;;;;;2.97;2.67;;;15.10;99.90;;;;;;5038353;28;20206;-77
2021/05/11 10:57:03;;;;;;;2.75;2.55;;;15.00;99.90;;;;;;5036802;28;20631;-78
2021/05/11 11:05:09;;;;;;;2.97;2.78;;;14.70;99.90;;;;;;5036972;28;21299;-77
2021/05/11 11:07:37;;;;;;;3.30;3.00;;;14.90;99.90;;;;;;5039344;28;20199;-75
2021/05/11 11:10:08;;;;;;;2.90;2.70;;;15.00;99.90;;;;;;5040198;28;20250;-76
2021/05/11 11:12:37;;;;;;;2.90;2.60;;;15.20;99.90;;;;;;5042209;28;20359;-79
2021/05/11 11:15:10;;;;;;;3.28;2.97;;;15.20;99.90;;;;;;5038206;28;20882;-77
2021/05/11 11:17:47;;;;;;;3.20;2.80;;;15.20;99.90;;;;;;5035112;28;20199;-77
2021/05/11 11:20:14;;;;;;;2.88;2.67;;;15.20;99.90;;;;;;5034626;28;20254;-76
2021/05/11 11:25:28;;;;;;;2.92;2.67;;;15.00;99.90;;;;;;5043906;28;20996;-76
2021/05/11 11:27:55;;;;;;;2.38;2.28;;;15.00;99.90;;;;;;5042687;28;20195;-77
2021/05/11 11:30:21;;;;;;;2.42;2.22;;;15.00;99.90;;;;;;5036238;28;20980;-77
2021/05/11 11:32:49;;;;;;;2.67;2.47;;;15.10;99.90;;;;;;5039274;28;20401;-77
2021/05/11 11:35:17;;;;;;;3.15;2.95;;;15.10;99.90;;;;;;5033508;28;20284;-77
2021/05/11 11:37:46;;;;;;;3.05;2.85;;;15.10;99.90;;;;;;5034593;28;20208;-77
2021/05/11 11:40:16;;;;;;;3.03;2.72;;;15.00;99.90;;;;;;5041832;28;20219;-77
2021/05/11 11:42:47;;;;;;;2.85;2.65;;;14.90;99.90;;;;;;5034494;28;20582;-76
2021/05/11 11:45:25;;;;;;;3.17;2.83;;;14.90;99.90;;;;;;5038411;28;20943;-77
2021/05/11 11:47:56;;;;;;;3.03;2.75;;;14.90;99.90;;;;;;5037152;28;20203;-77
2021/05/11 11:50:23;;;;;;;3.00;2.80;;;14.90;99.90;;;;;;5045126;28;20223;-77
2021/05/11 11:53:00;;;;;;;3.00;2.70;;;15.00;99.90;;;;;;5035762;28;20199;-77
2021/05/11 11:55:56;;;;;;;2.38;2.25;;;14.90;99.90;;;;;;5035777;28;20231;-76
2021/05/11 11:58:25;;;;;;;2.75;2.55;;;14.90;99.90;;;;;;5041205;28;20207;-77
2021/05/11 12:00:52;;;;;;;3.28;2.67;;;14.90;99.90;;;;;;5036957;28;20219;-78
2021/05/11 12:03:21;;;;;;;2.42;2.22;;;14.90;99.90;;;;;;5037668;28;20206;-77
2021/05/11 12:05:50;;;;;;;3.13;2.85;;;14.90;99.90;;;;;;5035170;28;20222;-78
2021/05/11 12:08:21;;;;;;;2.97;2.78;;;15.00;99.90;;;;;;5039772;28;20195;-78
2021/05/11 12:10:50;;;;;;;2.70;2.50;;;15.00;99.90;;;;;;5036320;28;20470;-77
2021/05/11 12:13:21;;;;;;;2.92;2.72;;;15.00;99.90;;;;;;5039877;28;20572;-79
2021/05/11 12:16:10;;;;;;;3.08;2.88;;;15.10;99.90;;;;;;5037506;28;20243;-77
2021/05/11 12:18:37;;;;;;;3.78;2.60;;;15.10;99.90;;;;;;5032608;28;20224;-78
2021/05/11 12:21:07;;;;;;;2.55;2.35;;;15.10;99.90;;;;;;5032130;28;20218;-76
2021/05/11 12:23:34;;;;;;;2.67;2.47;;;15.10;99.90;;;;;;5038177;28;20225;-77
2021/05/11 12:26:02;;;;;;;2.83;2.60;;;15.10;99.90;;;;;;5036241;28;20216;-76
2021/05/11 12:28:31;;;;;;;2.75;2.55;;;15.10;99.90;;;;;;5037561;28;20195;-77
2021/05/11 12:30:57;;;;;;;2.20;2.10;;;15.10;99.90;;;;;;5035489;28;20218;-77
2021/05/11 12:33:37;;;;;;;2.42;2.22;;;15.00;99.90;;;;;;5040884;28;20226;-77
2021/05/11 12:36:16;;;;;;;2.40;2.20;;;14.90;99.90;;;;;;5035648;28;20214;-77
2021/05/11 12:38:42;;;;;;;2.40;2.30;;;14.90;99.90;;;;;;5040803;28;20203;-77
2021/05/11 12:41:15;;;;;;;2.55;2.40;;;14.90;99.90;;;;;;5030775;28;20223;-76
2021/05/11 12:43:44;;;;;;;2.17;2.08;;;15.00;99.90;;;;;;5034683;28;20230;-76
2021/05/11 12:46:19;;;;;;;2.22;2.03;;;15.00;99.90;;;;;;5035841;28;20566;-75
2021/05/11 12:49:06;;;;;;;2.50;2.40;;;15.00;99.90;;;;;;5038122;28;20251;-76
2021/05/11 12:51:36;;;;;;;2.55;2.42;;;15.00;99.90;;;;;;5034897;28;20365;-76
2021/05/11 12:54:21;;;;;;;2.42;2.22;;;14.90;99.90;;;;;;5037424;28;20584;-78
2021/05/11 12:57:05;;;;;;;2.22;2.03;;;14.80;99.90;;;;;;5033819;28;20221;-77
2021/05/11 12:59:37;;;;;;;2.00;1.90;;;14.70;99.90;;;;;;5034328;28;20198;-76
2021/05/11 13:02:09;;;;;;;3.03;2.45;;;14.70;99.90;;;;;;5034069;28;20607;-76
2021/05/11 13:21:32;;;;;;;2.55;2.40;;;14.60;99.90;;;;;;5038881;28;20236;-77
2021/05/11 13:26:48;;;;;;;2.22;2.03;;;14.80;99.90;;;;;;5001872;28;20220;-76
2021/05/11 13:29:25;;;;;;;2.47;2.28;;;14.90;99.90;;;;;;5038866;28;20199;-76
2021/05/11 13:31:55;;;;;;;2.47;2.30;;;15.00;99.90;;;;;;5035525;28;20775;-75
2021/05/11 13:34:22;;;;;;;2.97;2.53;;;15.10;99.90;;;;;;5036717;28;20227;-76
2021/05/11 13:36:49;;;;;;;2.25;2.15;;;15.20;99.90;;;;;;5031191;28;20276;-76
2021/05/11 13:39:16;;;;;;;2.30;2.10;;;15.20;99.90;;;;;;5041741;28;20202;-74
2021/05/11 13:41:44;;;;;;;2.05;1.95;;;15.20;99.90;;;;;;5036586;28;20218;-78
2021/05/11 13:44:11;;;;;;;2.78;2.38;;;15.20;99.90;;;;;;5035880;28;20825;-76
2021/05/11 13:46:37;;;;;;;2.30;2.17;;;15.20;99.90;;;;;;5030727;28;20249;-75
2021/05/11 13:49:04;;;;;;;2.58;2.30;;;15.20;99.90;;;;;;5035698;28;20566;-74
2021/05/11 13:51:32;;;;;;;2.50;2.30;;;15.20;99.90;;;;;;5038262;28;20862;-76
2021/05/11 13:54:02;;;;;;;2.25;2.10;;;15.10;99.90;;;;;;5033369;28;20215;-75
2021/05/11 13:56:42;;;;;;;2.03;1.92;;;15.20;99.90;;;;;;5029814;28;20225;-76
2021/05/11 14:04:40;;;;;;;2.05;1.95;;;15.30;99.90;;;;;;5035556;28;20606;-77
2021/05/11 14:07:07;;;;;;;2.35;2.22;;;15.00;99.90;;;;;;5035262;28;20207;-77
2021/05/11 14:09:34;;;;;;;2.78;2.58;;;15.00;99.90;;;;;;5037080;28;21316;-77
2021/05/11 14:12:01;;;;;;;3.03;2.72;;;14.90;99.90;;;;;;5043117;28;20211;-76
2021/05/11 14:14:28;;;;;;;6.80;2.40;;;14.90;99.90;;;;;;5040689;28;20763;-75
2021/05/11 14:16:54;;;;;;;2.10;2.00;;;14.90;99.90;;;;;;5039229;28;20438;-76
2021/05/11 14:19:21;;;;;;;2.28;2.17;;;14.80;99.90;;;;;;5036328;28;20204;-77
2021/05/11 14:21:48;;;;;;;2.80;2.10;;;14.80;99.90;;;;;;5036975;28;20218;-75
2021/05/11 14:24:15;;;;;;;2.10;2.00;;;14.80;99.90;;;;;;5041561;28;20214;-77
2021/05/11 14:26:43;;;;;;;1.88;1.77;;;14.90;99.90;;;;;;5033459;28;20768;-77
2021/05/11 14:29:10;;;;;;;2.00;1.90;;;14.90;99.90;;;;;;5033384;28;20199;-76
2021/05/11 14:31:36;;;;;;;2.20;2.10;;;14.90;99.90;;;;;;5034704;28;20806;-75
2021/05/11 14:34:05;;;;;;;2.10;2.00;;;14.90;99.90;;;;;;5055878;22;20213;-72
2021/05/11 14:36:32;;;;;;;2.10;2.00;;;14.80;99.90;;;;;;5026971;28;20218;-73
2021/05/11 14:38:58;;;;;;;1.60;1.50;;;14.80;99.90;;;;;;5029619;28;20206;-75
2021/05/11 14:41:25;;;;;;;1.88;1.77;;;14.90;99.90;;;;;;5027138;28;20219;-73
2021/05/11 14:43:53;;;;;;;1.52;1.42;;;14.90;99.90;;;;;;5039373;28;20668;-74
2021/05/11 14:46:20;;;;;;;1.67;1.58;;;14.80;99.90;;;;;;5011681;28;20705;-73
2021/05/11 14:48:46;;;;;;;1.60;1.50;;;14.70;99.90;;;;;;5018544;28;20205;-72
2021/05/11 14:51:13;;;;;;;1.58;1.50;;;14.60;99.90;;;;;;5014263;28;20718;-73
2021/05/11 14:53:41;;;;;;;1.58;1.48;;;14.50;99.90;;;;;;5023966;28;20198;-73
2021/05/11 14:56:09;;;;;;;1.70;1.60;;;14.50;99.90;;;;;;5009525;28;20219;-73
2021/05/11 14:58:35;;;;;;;1.30;1.30;;;14.50;99.90;;;;;;5016893;28;20326;-74
2021/05/11 15:01:04;;;;;;;2.20;1.55;;;14.50;99.90;;;;;;5013175;28;20216;-72
2021/05/11 15:03:30;;;;;;;1.70;1.60;;;14.60;99.90;;;;;;5020049;28;20210;-74
2021/05/11 15:05:57;;;;;;;1.63;1.52;;;14.70;99.90;;;;;;5021322;28;20705;-72
2021/05/11 15:08:24;;;;;;;1.90;1.80;;;14.70;99.90;;;;;;5015516;28;20705;-74
2021/05/11 15:10:50;;;;;;;2.00;1.90;;;14.70;99.90;;;;;;5014827;28;20224;-72
2021/05/11 15:13:18;;;;;;;1.90;1.70;;;14.60;99.90;;;;;;5014109;28;20200;-72
2021/05/11 15:15:48;;;;;;;2.05;1.95;;;14.60;99.90;;;;;;5018166;28;20339;-73
2021/05/11 15:18:16;;;;;;;3.33;1.85;;;14.60;99.90;;;;;;5012949;28;20666;-73
2021/05/11 15:20:43;;;;;;;2.00;1.90;;;14.60;99.90;;;;;;5016995;28;20219;-73
2021/05/11 15:23:10;;;;;;;2.00;1.90;;;14.60;99.90;;;;;;5012690;28;20227;-73
2021/05/11 15:25:36;;;;;;;1.88;1.67;;;14.50;99.90;;;;;;5016907;28;20345;-72
2021/05/11 15:28:04;;;;;;;2.38;1.85;;;14.50;99.90;;;;;;5020228;28;20291;-72
2021/05/11 15:30:31;;;;;;;1.90;1.80;;;14.40;99.90;;;;;;5020090;28;20243;-74
2021/05/11 15:32:58;;;;;;;1.90;1.80;;;14.40;99.90;;;;;;5020414;28;20250;-72
2021/05/11 15:35:28;;;;;;;1.85;1.75;;;14.40;99.90;;;;;;5015093;28;20404;-76
2021/05/11 15:37:58;;;;;;;1.98;1.88;;;14.40;99.90;;;;;;5017600;28;20393;-74
2021/05/11 15:40:26;;;;;;;2.03;1.90;;;14.50;99.90;;;;;;5017595;28;20227;-73
2021/05/11 15:42:53;;;;;;;2.03;1.92;;;14.50;99.90;;;;;;5019827;28;20650;-73
2021/05/11 15:45:21;;;;;;;1.80;1.70;;;14.50;99.90;;;;;;5016136;28;20733;-72
2021/05/11 15:47:54;;;;;;;2.17;1.70;;;14.50;99.90;;;;;;5016731;28;20222;-72
2021/05/11 15:50:23;;;;;;;1.70;1.60;;;14.50;99.90;;;;;;5014504;28;20251;-74
2021/05/11 15:52:50;;;;;;;1.98;1.73;;;14.50;99.90;;;;;;5017853;28;20705;-72
2021/05/11 15:55:17;;;;;;;3.15;1.80;;;14.60;99.90;;;;;;5015065;28;20231;-71
2021/05/11 15:57:44;;;;;;;1.63;1.52;;;14.60;99.90;;;;;;5017681;28;20227;-73
2021/05/11 16:00:11;;;;;;;2.13;1.92;;;14.60;99.90;;;;;;5018242;28;20253;-72
2021/05/11 16:02:38;;;;;;;1.85;1.75;;;14.50;99.90;;;;;;5015257;28;20645;-73
2021/05/11 16:05:06;;;;;;;1.80;1.70;;;14.40;99.90;;;;;;5016616;28;20787;-76
2021/05/11 16:07:34;;;;;;;1.98;1.80;;;14.40;99.90;;;;;;5011267;28;20768;-75
2021/05/11 16:10:06;;;;;;;1.70;1.60;;;14.40;99.90;;;;;;5013162;28;20621;-72
2021/05/11 16:12:33;;;;;;;2.20;2.10;;;14.40;99.90;;;;;;5018904;28;20232;-72
2021/05/11 16:15:01;;;;;;;2.08;1.98;;;14.30;99.90;;;;;;5017179;28;20215;-74
2021/05/11 16:17:28;;;;;;;2.30;2.20;;;14.30;99.90;;;;;;5018190;28;20253;-73
2021/05/11 16:19:55;;;;;;;2.47;2.17;;;14.30;99.90;;;;;;5016124;28;20214;-72
2021/05/11 16:22:21;;;;;;;1.98;1.88;;;14.20;99.90;;;;;;5013739;28;20204;-72
2021/05/11 16:24:48;;;;;;;2.08;1.98;;;14.10;99.90;;;;;;5016878;28;20586;-73
2021/05/11 16:27:16;;;;;;;1.90;1.80;;;14.10;99.90;;;;;;5014006;28;20254;-73
2021/05/11 16:29:42;;;;;;;1.80;1.70;;;14.20;99.90;;;;;;5013324;28;20215;-71
2021/05/11 16:32:11;;;;;;;1.83;1.73;;;14.20;99.90;;;;;;5015694;28;20223;-72
2021/05/11 16:34:39;;;;;;;1.85;1.75;;;14.30;99.90;;;;;;5016086;28;20514;-74
2021/05/11 16:37:07;;;;;;;2.00;1.90;;;14.30;99.90;;;;;;5013817;28;20281;-75